sensor_id;sensor_type;location;lat;lon;timestamp;temperature;humidity
16958;DHT22;8595;52.542;11.974;2023-07-16T00:00:26;23.00;99.90
16958;DHT22;8595;52.542;11.974;2023-07-16T00:02:53;22.90;99.90
16958;DHT22;8595;52.542;11.974;2023-07-16T00:05:20;22.90;99.90
16958;DHT22;8595;52.542;11.974;2023-07-16T00:07:47;22.90;99.90
16958;DHT22;8595;52.542;11.974;2023-07-16T00:10:14;22.90;99.90
16958;DHT22;8595;52.542;11.974;2023-07-16T00:12:41;22.90;99.90
16958;DHT22;8595;52.542;11.974;2023-07-16T00:15:09;22.90;99.90
16958;DHT22;8595;52.542;11.974;2023-07-16T00:17:36;22.80;99.90
16958;DHT22;8595;52.542;11.974;2023-07-16T00:20:04;22.70;99.90
16958;DHT22;8595;52.542;11.974;2023-07-16T00:22:31;22.60;99.90
16958;DHT22;8595;52.542;11.974;2023-07-16T00:24:58;22.60;99.90
16958;DHT22;8595;52.542;11.974;2023-07-16T00:27:25;22.50;99.90
16958;DHT22;8595;52.542;11.974;2023-07-16T00:29:53;21.40;99.90
16958;DHT22;8595;52.542;11.974;2023-07-16T00:32:21;20.80;99.90
16958;DHT22;8595;52.542;11.974;2023-07-16T00:34:48;20.80;99.90
16958;DHT22;8595;52.542;11.974;2023-07-16T00:37:15;21.00;99.90
16958;DHT22;8595;52.542;11.974;2023-07-16T00:39:42;21.10;99.90
16958;DHT22;8595;52.542;11.974;2023-07-16T00:42:08;21.30;99.90
16958;DHT22;8595;52.542;11.974;2023-07-16T00:44:35;21.40;99.90
16958;DHT22;8595;52.542;11.974;2023-07-16T00:47:03;21.50;99.90
16958;DHT22;8595;52.542;11.974;2023-07-16T00:49:31;21.60;99.90
16958;DHT22;8595;52.542;11.974;2023-07-16T00:51:59;21.70;99.90
16958;DHT22;8595;52.542;11.974;2023-07-16T00:54:27;21.90;99.90
16958;DHT22;8595;52.542;11.974;2023-07-16T00:56:54;22.00;99.90
16958;DHT22;8595;52.542;11.974;2023-07-16T00:59:21;22.10;99.90
16958;DHT22;8595;52.542;11.974;2023-07-16T01:01:48;22.10;99.90
16958;DHT22;8595;52.542;11.974;2023-07-16T01:04:15;22.10;99.90
16958;DHT22;8595;52.542;11.974;2023-07-16T01:06:48;22.00;99.90
16958;DHT22;8595;52.542;11.974;2023-07-16T01:09:19;22.00;99.90
16958;DHT22;8595;52.542;11.974;2023-07-16T01:11:47;21.90;99.90
16958;DHT22;8595;52.542;11.974;2023-07-16T01:14:16;21.80;99.90
16958;DHT22;8595;52.542;11.974;2023-07-16T01:16:44;21.70;99.90
16958;DHT22;8595;52.542;11.974;2023-07-16T01:19:11;21.70;99.90
16958;DHT22;8595;52.542;11.974;2023-07-16T01:21:45;21.70;99.90
16958;DHT22;8595;52.542;11.974;2023-07-16T01:27:22;21.40;99.90
16958;DHT22;8595;52.542;11.974;2023-07-16T01:29:58;21.30;99.90
16958;DHT22;8595;52.542;11.974;2023-07-16T01:32:29;21.40;99.90
16958;DHT22;8595;52.542;11.974;2023-07-16T01:34:57;21.40;99.90
16958;DHT22;8595;52.542;11.974;2023-07-16T01:37:24;21.30;99.90
16958;DHT22;8595;52.542;11.974;2023-07-16T01:39:51;21.30;99.90
16958;DHT22;8595;52.542;11.974;2023-07-16T01:42:19;21.30;99.90
16958;DHT22;8595;52.542;11.974;2023-07-16T01:44:46;21.30;99.90
16958;DHT22;8595;52.542;11.974;2023-07-16T01:47:17;21.30;99.90
16958;DHT22;8595;52.542;11.974;2023-07-16T01:49:47;21.30;99.90
16958;DHT22;8595;52.542;11.974;2023-07-16T01:52:14;21.20;99.90
16958;DHT22;8595;52.542;11.974;2023-07-16T01:54:41;21.20;99.90
16958;DHT22;8595;52.542;11.974;2023-07-16T01:57:08;21.10;99.90
16958;DHT22;8595;52.542;11.974;2023-07-16T01:59:35;21.10;99.90
16958;DHT22;8595;52.542;11.974;2023-07-16T02:02:01;21.00;99.90
16958;DHT22;8595;52.542;11.974;2023-07-16T02:04:30;21.00;99.90
16958;DHT22;8595;52.542;11.974;2023-07-16T02:06:56;21.10;99.90
16958;DHT22;8595;52.542;11.974;2023-07-16T02:09:24;21.20;99.90
16958;DHT22;8595;52.542;11.974;2023-07-16T02:11:51;21.40;99.90
16958;DHT22;8595;52.542;11.974;2023-07-16T02:14:18;21.50;99.90
16958;DHT22;8595;52.542;11.974;2023-07-16T02:16:45;21.50;99.90
16958;DHT22;8595;52.542;11.974;2023-07-16T02:19:12;21.40;99.90
16958;DHT22;8595;52.542;11.974;2023-07-16T02:21:40;21.60;99.90
16958;DHT22;8595;52.542;11.974;2023-07-16T02:24:07;21.70;99.90
16958;DHT22;8595;52.542;11.974;2023-07-16T02:26:33;21.70;99.90
16958;DHT22;8595;52.542;11.974;2023-07-16T02:29:00;21.60;99.90
16958;DHT22;8595;52.542;11.974;2023-07-16T02:31:28;21.60;99.90
16958;DHT22;8595;52.542;11.974;2023-07-16T02:33:55;21.50;99.90
16958;DHT22;8595;52.542;11.974;2023-07-16T02:36:22;21.50;99.90
16958;DHT22;8595;52.542;11.974;2023-07-16T02:38:50;21.40;99.90
16958;DHT22;8595;52.542;11.974;2023-07-16T02:41:17;21.40;99.90
16958;DHT22;8595;52.542;11.974;2023-07-16T02:43:45;21.20;99.90
16958;DHT22;8595;52.542;11.974;2023-07-16T02:46:12;21.20;99.90
16958;DHT22;8595;52.542;11.974;2023-07-16T02:48:39;21.10;99.90
16958;DHT22;8595;52.542;11.974;2023-07-16T02:51:05;21.20;99.90
16958;DHT22;8595;52.542;11.974;2023-07-16T02:53:32;21.10;99.90
16958;DHT22;8595;52.542;11.974;2023-07-16T02:56:00;21.20;99.90
16958;DHT22;8595;52.542;11.974;2023-07-16T02:58:27;21.20;99.90
16958;DHT22;8595;52.542;11.974;2023-07-16T03:00:54;21.10;99.90
16958;DHT22;8595;52.542;11.974;2023-07-16T03:03:21;21.20;99.90
16958;DHT22;8595;52.542;11.974;2023-07-16T03:05:48;21.20;99.90
16958;DHT22;8595;52.542;11.974;2023-07-16T03:08:15;21.10;99.90
16958;DHT22;8595;52.542;11.974;2023-07-16T03:10:42;21.10;99.90
16958;DHT22;8595;52.542;11.974;2023-07-16T03:13:10;21.00;99.90
16958;DHT22;8595;52.542;11.974;2023-07-16T03:15:37;21.00;99.90
16958;DHT22;8595;52.542;11.974;2023-07-16T03:18:04;21.00;99.90
16958;DHT22;8595;52.542;11.974;2023-07-16T03:20:31;21.00;99.90
16958;DHT22;8595;52.542;11.974;2023-07-16T03:22:58;21.10;99.90
16958;DHT22;8595;52.542;11.974;2023-07-16T03:25:25;21.00;99.90
16958;DHT22;8595;52.542;11.974;2023-07-16T03:27:52;21.00;99.90
16958;DHT22;8595;52.542;11.974;2023-07-16T03:30:20;21.00;99.90
16958;DHT22;8595;52.542;11.974;2023-07-16T03:32:47;20.90;99.90
16958;DHT22;8595;52.542;11.974;2023-07-16T03:35:14;21.00;99.90
16958;DHT22;8595;52.542;11.974;2023-07-16T03:37:41;21.00;99.90
16958;DHT22;8595;52.542;11.974;2023-07-16T03:40:15;21.00;99.90
16958;DHT22;8595;52.542;11.974;2023-07-16T03:42:42;21.00;99.90
16958;DHT22;8595;52.542;11.974;2023-07-16T03:45:11;21.10;99.90
16958;DHT22;8595;52.542;11.974;2023-07-16T03:47:39;21.10;99.90
16958;DHT22;8595;52.542;11.974;2023-07-16T03:50:07;21.00;99.90
16958;DHT22;8595;52.542;11.974;2023-07-16T03:52:34;21.00;99.90
16958;DHT22;8595;52.542;11.974;2023-07-16T03:55:03;21.10;99.90
16958;DHT22;8595;52.542;11.974;2023-07-16T03:57:30;21.10;99.90
16958;DHT22;8595;52.542;11.974;2023-07-16T03:59:58;21.00;99.90
16958;DHT22;8595;52.542;11.974;2023-07-16T04:02:25;21.00;99.90
16958;DHT22;8595;52.542;11.974;2023-07-16T04:04:53;20.90;99.90
16958;DHT22;8595;52.542;11.974;2023-07-16T04:07:20;20.90;99.90
16958;DHT22;8595;52.542;11.974;2023-07-16T04:09:47;21.10;99.90
16958;DHT22;8595;52.542;11.974;2023-07-16T04:12:14;21.20;99.90
16958;DHT22;8595;52.542;11.974;2023-07-16T04:14:41;21.10;99.90
16958;DHT22;8595;52.542;11.974;2023-07-16T04:17:08;21.10;99.90
16958;DHT22;8595;52.542;11.974;2023-07-16T04:19:34;21.10;99.90
16958;DHT22;8595;52.542;11.974;2023-07-16T04:22:03;21.10;99.90
16958;DHT22;8595;52.542;11.974;2023-07-16T04:24:30;21.10;99.90
16958;DHT22;8595;52.542;11.974;2023-07-16T04:26:58;21.10;99.90
16958;DHT22;8595;52.542;11.974;2023-07-16T04:29:24;21.00;99.90
16958;DHT22;8595;52.542;11.974;2023-07-16T04:31:51;21.10;99.90
16958;DHT22;8595;52.542;11.974;2023-07-16T04:34:18;21.20;99.90
16958;DHT22;8595;52.542;11.974;2023-07-16T04:36:45;21.30;99.90
16958;DHT22;8595;52.542;11.974;2023-07-16T04:39:13;21.20;99.90
16958;DHT22;8595;52.542;11.974;2023-07-16T04:41:41;21.20;99.90
16958;DHT22;8595;52.542;11.974;2023-07-16T04:44:07;21.10;99.90
16958;DHT22;8595;52.542;11.974;2023-07-16T04:46:34;21.20;99.90
16958;DHT22;8595;52.542;11.974;2023-07-16T04:49:02;21.30;99.90
16958;DHT22;8595;52.542;11.974;2023-07-16T04:51:29;21.20;99.90
16958;DHT22;8595;52.542;11.974;2023-07-16T04:53:56;21.20;99.90
16958;DHT22;8595;52.542;11.974;2023-07-16T04:56:25;21.20;99.90
16958;DHT22;8595;52.542;11.974;2023-07-16T04:58:51;21.30;99.90
16958;DHT22;8595;52.542;11.974;2023-07-16T05:01:18;21.30;99.90
16958;DHT22;8595;52.542;11.974;2023-07-16T05:03:47;21.30;99.90
16958;DHT22;8595;52.542;11.974;2023-07-16T05:06:14;21.30;99.90
16958;DHT22;8595;52.542;11.974;2023-07-16T05:08:41;21.30;99.90
16958;DHT22;8595;52.542;11.974;2023-07-16T05:11:07;21.30;99.90
16958;DHT22;8595;52.542;11.974;2023-07-16T05:13:36;21.20;99.90
16958;DHT22;8595;52.542;11.974;2023-07-16T05:16:03;21.20;99.90
16958;DHT22;8595;52.542;11.974;2023-07-16T05:18:30;21.30;99.90
16958;DHT22;8595;52.542;11.974;2023-07-16T05:20:56;21.50;99.90
16958;DHT22;8595;52.542;11.974;2023-07-16T05:23:23;21.60;99.90
16958;DHT22;8595;52.542;11.974;2023-07-16T05:25:50;21.70;99.90
16958;DHT22;8595;52.542;11.974;2023-07-16T05:28:18;21.70;99.90
16958;DHT22;8595;52.542;11.974;2023-07-16T05:30:46;21.70;99.90
16958;DHT22;8595;52.542;11.974;2023-07-16T05:33:13;21.70;99.90
16958;DHT22;8595;52.542;11.974;2023-07-16T05:35:40;21.80;99.90
16958;DHT22;8595;52.542;11.974;2023-07-16T05:38:07;21.90;99.90
16958;DHT22;8595;52.542;11.974;2023-07-16T05:40:35;22.00;99.90
16958;DHT22;8595;52.542;11.974;2023-07-16T05:43:02;22.10;99.90
16958;DHT22;8595;52.542;11.974;2023-07-16T05:45:29;22.30;99.90
16958;DHT22;8595;52.542;11.974;2023-07-16T05:47:57;22.40;99.90
16958;DHT22;8595;52.542;11.974;2023-07-16T05:50:24;22.30;99.90
16958;DHT22;8595;52.542;11.974;2023-07-16T05:52:51;22.30;99.90
16958;DHT22;8595;52.542;11.974;2023-07-16T05:55:21;22.30;99.90
16958;DHT22;8595;52.542;11.974;2023-07-16T05:57:48;22.30;99.90
16958;DHT22;8595;52.542;11.974;2023-07-16T06:00:15;22.40;99.90
16958;DHT22;8595;52.542;11.974;2023-07-16T06:02:42;22.40;99.90
16958;DHT22;8595;52.542;11.974;2023-07-16T06:05:11;22.40;99.90
16958;DHT22;8595;52.542;11.974;2023-07-16T06:07:37;22.50;99.90
16958;DHT22;8595;52.542;11.974;2023-07-16T06:10:05;22.40;99.90
16958;DHT22;8595;52.542;11.974;2023-07-16T06:12:32;22.30;99.90
16958;DHT22;8595;52.542;11.974;2023-07-16T06:14:59;22.30;99.90
16958;DHT22;8595;52.542;11.974;2023-07-16T06:17:26;22.40;99.90
16958;DHT22;8595;52.542;11.974;2023-07-16T06:19:53;22.50;99.90
16958;DHT22;8595;52.542;11.974;2023-07-16T06:22:21;22.60;99.90
16958;DHT22;8595;52.542;11.974;2023-07-16T06:24:48;22.70;99.90
16958;DHT22;8595;52.542;11.974;2023-07-16T06:27:15;22.90;99.90
16958;DHT22;8595;52.542;11.974;2023-07-16T06:29:42;23.00;99.90
16958;DHT22;8595;52.542;11.974;2023-07-16T06:32:09;22.80;99.90
16958;DHT22;8595;52.542;11.974;2023-07-16T06:34:36;23.00;99.90
16958;DHT22;8595;52.542;11.974;2023-07-16T06:37:03;22.90;99.90
16958;DHT22;8595;52.542;11.974;2023-07-16T06:39:32;23.00;99.90
16958;DHT22;8595;52.542;11.974;2023-07-16T06:41:59;23.00;99.90
16958;DHT22;8595;52.542;11.974;2023-07-16T06:44:26;23.00;99.90
16958;DHT22;8595;52.542;11.974;2023-07-16T06:46:53;23.10;99.90
16958;DHT22;8595;52.542;11.974;2023-07-16T06:49:21;23.10;99.90
16958;DHT22;8595;52.542;11.974;2023-07-16T06:51:48;23.30;99.90
16958;DHT22;8595;52.542;11.974;2023-07-16T06:54:16;23.30;99.90
16958;DHT22;8595;52.542;11.974;2023-07-16T06:56:44;23.10;99.90
16958;DHT22;8595;52.542;11.974;2023-07-16T06:59:11;23.00;99.90
16958;DHT22;8595;52.542;11.974;2023-07-16T07:01:37;22.90;99.90
16958;DHT22;8595;52.542;11.974;2023-07-16T07:04:04;23.10;99.90
16958;DHT22;8595;52.542;11.974;2023-07-16T07:06:31;23.20;99.90
16958;DHT22;8595;52.542;11.974;2023-07-16T07:08:58;23.30;99.90
16958;DHT22;8595;52.542;11.974;2023-07-16T07:11:25;23.30;99.90
16958;DHT22;8595;52.542;11.974;2023-07-16T07:13:53;23.20;99.90
16958;DHT22;8595;52.542;11.974;2023-07-16T07:16:22;23.00;99.90
16958;DHT22;8595;52.542;11.974;2023-07-16T07:18:48;23.00;99.90
16958;DHT22;8595;52.542;11.974;2023-07-16T07:21:15;22.90;99.90
16958;DHT22;8595;52.542;11.974;2023-07-16T07:23:42;23.00;99.90
16958;DHT22;8595;52.542;11.974;2023-07-16T07:26:09;23.00;99.90
16958;DHT22;8595;52.542;11.974;2023-07-16T07:28:36;22.90;99.90
16958;DHT22;8595;52.542;11.974;2023-07-16T07:31:04;22.80;99.90
16958;DHT22;8595;52.542;11.974;2023-07-16T07:33:31;22.80;99.90
16958;DHT22;8595;52.542;11.974;2023-07-16T07:35:58;22.70;99.90
16958;DHT22;8595;52.542;11.974;2023-07-16T07:38:25;22.50;99.90
16958;DHT22;8595;52.542;11.974;2023-07-16T07:40:54;22.60;99.90
16958;DHT22;8595;52.542;11.974;2023-07-16T07:43:21;22.70;99.90
16958;DHT22;8595;52.542;11.974;2023-07-16T07:45:47;22.90;99.90
16958;DHT22;8595;52.542;11.974;2023-07-16T07:48:16;22.90;99.90
16958;DHT22;8595;52.542;11.974;2023-07-16T07:50:42;23.10;99.90
16958;DHT22;8595;52.542;11.974;2023-07-16T07:53:09;23.10;99.90
16958;DHT22;8595;52.542;11.974;2023-07-16T07:55:36;23.00;99.90
16958;DHT22;8595;52.542;11.974;2023-07-16T07:58:03;23.10;99.90
16958;DHT22;8595;52.542;11.974;2023-07-16T08:00:30;23.30;99.90
16958;DHT22;8595;52.542;11.974;2023-07-16T08:02:56;23.30;99.90
16958;DHT22;8595;52.542;11.974;2023-07-16T08:05:25;23.40;99.90
16958;DHT22;8595;52.542;11.974;2023-07-16T08:07:51;23.50;99.90
16958;DHT22;8595;52.542;11.974;2023-07-16T08:10:19;23.50;99.90
16958;DHT22;8595;52.542;11.974;2023-07-16T08:12:45;23.60;99.90
16958;DHT22;8595;52.542;11.974;2023-07-16T08:15:12;23.80;99.90
16958;DHT22;8595;52.542;11.974;2023-07-16T08:17:40;23.70;99.90
16958;DHT22;8595;52.542;11.974;2023-07-16T08:20:08;23.90;99.90
16958;DHT22;8595;52.542;11.974;2023-07-16T08:22:37;24.00;99.90
16958;DHT22;8595;52.542;11.974;2023-07-16T08:25:06;23.90;99.90
16958;DHT22;8595;52.542;11.974;2023-07-16T08:27:34;24.00;99.90
16958;DHT22;8595;52.542;11.974;2023-07-16T08:30:01;24.10;99.90
16958;DHT22;8595;52.542;11.974;2023-07-16T08:32:28;24.30;99.90
16958;DHT22;8595;52.542;11.974;2023-07-16T08:34:54;24.30;99.90
16958;DHT22;8595;52.542;11.974;2023-07-16T08:37:21;24.20;99.90
16958;DHT22;8595;52.542;11.974;2023-07-16T08:39:52;24.20;99.90
16958;DHT22;8595;52.542;11.974;2023-07-16T08:42:19;24.20;99.90
16958;DHT22;8595;52.542;11.974;2023-07-16T08:44:47;24.40;99.90
16958;DHT22;8595;52.542;11.974;2023-07-16T08:47:15;24.50;99.90
16958;DHT22;8595;52.542;11.974;2023-07-16T08:49:53;24.70;99.90
16958;DHT22;8595;52.542;11.974;2023-07-16T08:52:20;24.90;99.90
16958;DHT22;8595;52.542;11.974;2023-07-16T08:54:47;24.80;99.90
16958;DHT22;8595;52.542;11.974;2023-07-16T08:57:15;25.00;99.90
16958;DHT22;8595;52.542;11.974;2023-07-16T08:59:43;25.30;99.90
16958;DHT22;8595;52.542;11.974;2023-07-16T09:02:11;25.40;99.90
16958;DHT22;8595;52.542;11.974;2023-07-16T09:04:39;25.20;99.90
16958;DHT22;8595;52.542;11.974;2023-07-16T09:07:06;25.30;99.90
16958;DHT22;8595;52.542;11.974;2023-07-16T09:09:32;25.50;99.90
16958;DHT22;8595;52.542;11.974;2023-07-16T09:11:59;25.80;99.90
16958;DHT22;8595;52.542;11.974;2023-07-16T09:14:28;26.60;99.90
16958;DHT22;8595;52.542;11.974;2023-07-16T09:16:54;26.40;99.90
16958;DHT22;8595;52.542;11.974;2023-07-16T09:19:22;26.20;99.90
16958;DHT22;8595;52.542;11.974;2023-07-16T09:21:49;25.90;99.90
16958;DHT22;8595;52.542;11.974;2023-07-16T09:24:17;25.50;99.90
16958;DHT22;8595;52.542;11.974;2023-07-16T09:26:50;25.20;99.90
16958;DHT22;8595;52.542;11.974;2023-07-16T09:29:17;24.90;99.90
16958;DHT22;8595;52.542;11.974;2023-07-16T09:31:55;24.90;99.90
16958;DHT22;8595;52.542;11.974;2023-07-16T09:34:23;25.70;99.90
16958;DHT22;8595;52.542;11.974;2023-07-16T09:36:50;26.80;99.90
16958;DHT22;8595;52.542;11.974;2023-07-16T09:39:17;27.90;99.90
16958;DHT22;8595;52.542;11.974;2023-07-16T09:41:45;28.30;99.90
16958;DHT22;8595;52.542;11.974;2023-07-16T09:44:14;28.40;99.90
16958;DHT22;8595;52.542;11.974;2023-07-16T09:46:41;29.10;99.90
16958;DHT22;8595;52.542;11.974;2023-07-16T09:49:09;29.30;99.90
16958;DHT22;8595;52.542;11.974;2023-07-16T09:51:37;29.40;99.90
16958;DHT22;8595;52.542;11.974;2023-07-16T09:54:05;29.30;99.90
16958;DHT22;8595;52.542;11.974;2023-07-16T09:56:35;29.40;99.90
16958;DHT22;8595;52.542;11.974;2023-07-16T09:59:06;29.30;99.90
16958;DHT22;8595;52.542;11.974;2023-07-16T10:01:36;29.90;99.90
16958;DHT22;8595;52.542;11.974;2023-07-16T10:04:16;29.30;99.90
16958;DHT22;8595;52.542;11.974;2023-07-16T10:06:53;28.40;99.90
16958;DHT22;8595;52.542;11.974;2023-07-16T10:09:38;27.60;99.90
16958;DHT22;8595;52.542;11.974;2023-07-16T10:12:15;28.20;99.90
16958;DHT22;8595;52.542;11.974;2023-07-16T10:14:45;28.10;99.90
16958;DHT22;8595;52.542;11.974;2023-07-16T10:17:13;28.60;99.90
16958;DHT22;8595;52.542;11.974;2023-07-16T10:19:55;29.30;99.90
16958;DHT22;8595;52.542;11.974;2023-07-16T10:22:34;28.60;99.90
16958;DHT22;8595;52.542;11.974;2023-07-16T10:25:02;28.80;99.90
16958;DHT22;8595;52.542;11.974;2023-07-16T10:27:31;29.00;99.90
16958;DHT22;8595;52.542;11.974;2023-07-16T10:30:00;29.30;99.90
16958;DHT22;8595;52.542;11.974;2023-07-16T10:32:29;29.30;99.90
16958;DHT22;8595;52.542;11.974;2023-07-16T10:34:58;30.10;99.90
16958;DHT22;8595;52.542;11.974;2023-07-16T10:37:25;30.40;99.90
16958;DHT22;8595;52.542;11.974;2023-07-16T10:39:54;30.20;99.90
16958;DHT22;8595;52.542;11.974;2023-07-16T10:42:24;30.00;99.90
16958;DHT22;8595;52.542;11.974;2023-07-16T10:44:52;30.10;99.90
16958;DHT22;8595;52.542;11.974;2023-07-16T10:47:22;30.10;99.90
16958;DHT22;8595;52.542;11.974;2023-07-16T10:49:49;30.30;99.90
16958;DHT22;8595;52.542;11.974;2023-07-16T10:52:19;30.60;99.90
16958;DHT22;8595;52.542;11.974;2023-07-16T10:54:46;30.50;99.90
16958;DHT22;8595;52.542;11.974;2023-07-16T10:57:14;30.40;99.90
16958;DHT22;8595;52.542;11.974;2023-07-16T10:59:43;30.30;99.90
16958;DHT22;8595;52.542;11.974;2023-07-16T11:02:12;29.70;99.90
16958;DHT22;8595;52.542;11.974;2023-07-16T11:04:39;29.80;99.90
16958;DHT22;8595;52.542;11.974;2023-07-16T11:07:07;29.30;99.90
16958;DHT22;8595;52.542;11.974;2023-07-16T11:09:40;29.70;99.90
16958;DHT22;8595;52.542;11.974;2023-07-16T11:12:10;29.80;99.90
16958;DHT22;8595;52.542;11.974;2023-07-16T11:14:37;29.40;99.90
16958;DHT22;8595;52.542;11.974;2023-07-16T11:17:06;29.20;99.90
16958;DHT22;8595;52.542;11.974;2023-07-16T11:19:34;28.90;99.90
16958;DHT22;8595;52.542;11.974;2023-07-16T11:22:02;29.30;99.90
16958;DHT22;8595;52.542;11.974;2023-07-16T11:24:38;29.40;99.90
16958;DHT22;8595;52.542;11.974;2023-07-16T11:27:06;29.60;99.90
16958;DHT22;8595;52.542;11.974;2023-07-16T11:29:39;30.20;99.90
16958;DHT22;8595;52.542;11.974;2023-07-16T11:32:08;30.40;99.90
16958;DHT22;8595;52.542;11.974;2023-07-16T11:34:35;30.30;99.90
16958;DHT22;8595;52.542;11.974;2023-07-16T11:37:09;30.60;99.90
16958;DHT22;8595;52.542;11.974;2023-07-16T11:39:37;30.20;99.90
16958;DHT22;8595;52.542;11.974;2023-07-16T11:42:05;30.30;99.90
16958;DHT22;8595;52.542;11.974;2023-07-16T11:44:33;30.20;99.90
16958;DHT22;8595;52.542;11.974;2023-07-16T11:47:00;30.20;99.90
16958;DHT22;8595;52.542;11.974;2023-07-16T11:49:27;30.60;99.90
16958;DHT22;8595;52.542;11.974;2023-07-16T11:51:57;30.30;99.90
16958;DHT22;8595;52.542;11.974;2023-07-16T11:54:26;30.70;99.90
16958;DHT22;8595;52.542;11.974;2023-07-16T11:56:54;30.60;99.90
16958;DHT22;8595;52.542;11.974;2023-07-16T11:59:21;30.20;99.90
16958;DHT22;8595;52.542;11.974;2023-07-16T12:01:48;30.10;99.90
16958;DHT22;8595;52.542;11.974;2023-07-16T12:04:16;29.90;99.90
16958;DHT22;8595;52.542;11.974;2023-07-16T12:06:43;29.60;99.90
16958;DHT22;8595;52.542;11.974;2023-07-16T12:09:10;29.80;99.90
16958;DHT22;8595;52.542;11.974;2023-07-16T12:11:37;29.80;99.90
16958;DHT22;8595;52.542;11.974;2023-07-16T12:14:06;29.60;99.90
16958;DHT22;8595;52.542;11.974;2023-07-16T12:16:33;29.70;98.20
16958;DHT22;8595;52.542;11.974;2023-07-16T12:18:59;29.90;97.60
16958;DHT22;8595;52.542;11.974;2023-07-16T12:21:27;30.40;96.90
16958;DHT22;8595;52.542;11.974;2023-07-16T12:23:53;30.50;96.60
16958;DHT22;8595;52.542;11.974;2023-07-16T12:26:20;30.10;96.30
16958;DHT22;8595;52.542;11.974;2023-07-16T12:28:47;30.00;96.20
16958;DHT22;8595;52.542;11.974;2023-07-16T12:31:15;30.30;96.40
16958;DHT22;8595;52.542;11.974;2023-07-16T12:33:43;30.30;95.30
16958;DHT22;8595;52.542;11.974;2023-07-16T12:36:10;30.40;94.30
16958;DHT22;8595;52.542;11.974;2023-07-16T12:38:37;30.80;94.10
16958;DHT22;8595;52.542;11.974;2023-07-16T12:41:04;31.40;92.80
16958;DHT22;8595;52.542;11.974;2023-07-16T12:43:31;31.10;91.70
16958;DHT22;8595;52.542;11.974;2023-07-16T12:46:00;31.30;91.40
16958;DHT22;8595;52.542;11.974;2023-07-16T12:48:28;31.60;92.10
16958;DHT22;8595;52.542;11.974;2023-07-16T12:50:55;31.80;90.30
16958;DHT22;8595;52.542;11.974;2023-07-16T12:53:23;31.80;90.70
16958;DHT22;8595;52.542;11.974;2023-07-16T12:55:49;32.10;90.70
16958;DHT22;8595;52.542;11.974;2023-07-16T12:58:16;31.20;90.10
16958;DHT22;8595;52.542;11.974;2023-07-16T13:00:43;31.60;92.10
16958;DHT22;8595;52.542;11.974;2023-07-16T13:03:11;32.10;91.20
16958;DHT22;8595;52.542;11.974;2023-07-16T13:05:43;32.00;88.40
16958;DHT22;8595;52.542;11.974;2023-07-16T13:08:10;31.90;90.20
16958;DHT22;8595;52.542;11.974;2023-07-16T13:10:37;31.80;89.20
16958;DHT22;8595;52.542;11.974;2023-07-16T13:13:05;31.70;90.30
16958;DHT22;8595;52.542;11.974;2023-07-16T13:15:34;31.60;88.90
16958;DHT22;8595;52.542;11.974;2023-07-16T13:18:02;31.60;90.20
16958;DHT22;8595;52.542;11.974;2023-07-16T13:20:29;31.60;89.90
16958;DHT22;8595;52.542;11.974;2023-07-16T13:22:59;31.90;86.90
16958;DHT22;8595;52.542;11.974;2023-07-16T13:25:28;32.00;87.90
16958;DHT22;8595;52.542;11.974;2023-07-16T13:27:55;31.60;88.00
16958;DHT22;8595;52.542;11.974;2023-07-16T13:30:22;31.00;87.70
16958;DHT22;8595;52.542;11.974;2023-07-16T13:32:49;30.90;89.90
16958;DHT22;8595;52.542;11.974;2023-07-16T13:35:16;30.90;88.60
16958;DHT22;8595;52.542;11.974;2023-07-16T13:37:43;30.50;88.20
16958;DHT22;8595;52.542;11.974;2023-07-16T13:40:13;30.10;90.00
16958;DHT22;8595;52.542;11.974;2023-07-16T13:42:39;29.70;90.30
16958;DHT22;8595;52.542;11.974;2023-07-16T13:45:07;30.00;90.20
16958;DHT22;8595;52.542;11.974;2023-07-16T13:47:34;29.90;90.60
16958;DHT22;8595;52.542;11.974;2023-07-16T13:50:01;29.80;90.60
16958;DHT22;8595;52.542;11.974;2023-07-16T13:52:28;30.20;90.80
16958;DHT22;8595;52.542;11.974;2023-07-16T13:54:54;30.40;90.50
16958;DHT22;8595;52.542;11.974;2023-07-16T13:57:23;30.50;89.30
16958;DHT22;8595;52.542;11.974;2023-07-16T13:59:49;30.90;88.60
16958;DHT22;8595;52.542;11.974;2023-07-16T14:02:16;31.60;89.40
16958;DHT22;8595;52.542;11.974;2023-07-16T14:04:44;32.00;88.20
16958;DHT22;8595;52.542;11.974;2023-07-16T14:07:11;31.40;86.00
16958;DHT22;8595;52.542;11.974;2023-07-16T14:09:38;31.00;83.50
16958;DHT22;8595;52.542;11.974;2023-07-16T14:12:05;30.60;85.70
16958;DHT22;8595;52.542;11.974;2023-07-16T14:14:34;31.00;88.00
16958;DHT22;8595;52.542;11.974;2023-07-16T14:17:01;31.80;89.20
16958;DHT22;8595;52.542;11.974;2023-07-16T14:19:29;31.80;88.00
16958;DHT22;8595;52.542;11.974;2023-07-16T14:21:56;31.80;85.70
16958;DHT22;8595;52.542;11.974;2023-07-16T14:24:23;31.70;85.40
16958;DHT22;8595;52.542;11.974;2023-07-16T14:26:50;30.70;86.00
16958;DHT22;8595;52.542;11.974;2023-07-16T14:29:17;30.30;87.70
16958;DHT22;8595;52.542;11.974;2023-07-16T14:31:45;30.30;88.20
16958;DHT22;8595;52.542;11.974;2023-07-16T14:34:12;30.70;89.40
16958;DHT22;8595;52.542;11.974;2023-07-16T14:36:40;31.60;88.30
16958;DHT22;8595;52.542;11.974;2023-07-16T14:39:07;31.60;85.80
16958;DHT22;8595;52.542;11.974;2023-07-16T14:41:34;31.00;86.50
16958;DHT22;8595;52.542;11.974;2023-07-16T14:44:01;31.40;88.10
16958;DHT22;8595;52.542;11.974;2023-07-16T14:46:28;32.00;87.60
16958;DHT22;8595;52.542;11.974;2023-07-16T14:48:56;32.40;84.10
16958;DHT22;8595;52.542;11.974;2023-07-16T14:51:23;32.60;83.70
16958;DHT22;8595;52.542;11.974;2023-07-16T14:53:51;32.30;83.30
16958;DHT22;8595;52.542;11.974;2023-07-16T14:56:18;32.10;81.80
16958;DHT22;8595;52.542;11.974;2023-07-16T14:58:45;31.90;80.00
16958;DHT22;8595;52.542;11.974;2023-07-16T15:01:12;32.10;80.00
16958;DHT22;8595;52.542;11.974;2023-07-16T15:03:39;32.30;80.30
16958;DHT22;8595;52.542;11.974;2023-07-16T15:06:08;32.00;77.20
16958;DHT22;8595;52.542;11.974;2023-07-16T15:08:35;32.00;78.80
16958;DHT22;8595;52.542;11.974;2023-07-16T15:11:02;32.30;78.90
16958;DHT22;8595;52.542;11.974;2023-07-16T15:13:29;32.50;78.80
16958;DHT22;8595;52.542;11.974;2023-07-16T15:15:56;32.60;78.70
16958;DHT22;8595;52.542;11.974;2023-07-16T15:18:24;32.70;78.70
16958;DHT22;8595;52.542;11.974;2023-07-16T15:20:56;32.70;77.00
16958;DHT22;8595;52.542;11.974;2023-07-16T15:23:25;32.70;76.60
16958;DHT22;8595;52.542;11.974;2023-07-16T15:25:52;32.40;77.40
16958;DHT22;8595;52.542;11.974;2023-07-16T15:28:19;32.00;76.70
16958;DHT22;8595;52.542;11.974;2023-07-16T15:30:45;32.00;76.20
16958;DHT22;8595;52.542;11.974;2023-07-16T15:33:12;31.70;77.10
16958;DHT22;8595;52.542;11.974;2023-07-16T15:35:39;31.70;78.20